Terminal Aerodrome Forecast
Issued by NWS Atlanta, GA

Home | Current Version | Previous Version | Text Only | Print | Product List | Glossary On
Versions: 1 2 3 4 5 6 7 8 9 10 11 12 13 14 15
000
FTUS42 KFFC 221120
TAFMCN
TAF
KMCN 221120Z 2212/2312 00000KT 4SM BR SKC
     FM221400 07004KT P6SM FEW040
     FM221800 09004KT P6SM VCSH SCT045
     FM230200 07003KT P6SM SCT250=

USA.gov is the U.S. government's official web portal to all federal, state and local government web resources and services.